createdAt,value
2022-12-09T00:01:13.202Z,97752.34
2022-12-09T00:03:43.948Z,97746.03
2022-12-09T00:06:16.675Z,97741.16
2022-12-09T00:08:45.135Z,97736.63
2022-12-09T00:11:14.703Z,97736.94
2022-12-09T00:13:42.792Z,97728.72
2022-12-09T00:16:13.348Z,97725.25
2022-12-09T00:18:41.740Z,97721.06
2022-12-09T00:21:14.544Z,97718.66
2022-12-09T00:23:42.893Z,97730.69
2022-12-09T00:26:11.229Z,97714.59
2022-12-09T00:28:41.018Z,97716.16
2022-12-09T00:31:09.767Z,97718.97
2022-12-09T00:33:37.744Z,97718.66
2022-12-09T00:36:14.480Z,97718.97
2022-12-09T00:38:43.384Z,97715.59
2022-12-09T00:41:12.177Z,97713.91
2022-12-09T00:43:42.391Z,97701.28
2022-12-09T00:46:11.200Z,97706.47
2022-12-09T00:48:39.660Z,97710.66
2022-12-09T00:51:08.842Z,97713.63
2022-12-09T00:53:36.762Z,97709.13
2022-12-09T00:56:04.825Z,97717.06
2022-12-09T00:58:35.858Z,97715.31
2022-12-09T01:01:05.394Z,97712.34
2022-12-09T01:03:33.879Z,97713.50
2022-12-09T01:06:02.160Z,97716.72
2022-12-09T01:08:32.762Z,97713.50
2022-12-09T01:11:01.107Z,97711.66
2022-12-09T01:13:29.123Z,97718.81
2022-12-09T01:15:57.231Z,97727.63
2022-12-09T01:18:26.901Z,97730.47
2022-12-09T01:20:58.286Z,97725.38
2022-12-09T01:23:26.754Z,97729.41
2022-12-09T01:25:54.784Z,97734.31
2022-12-09T01:28:22.564Z,97727.44
2022-12-09T01:30:50.844Z,97723.19
2022-12-09T01:33:18.761Z,97727.59
2022-12-09T01:35:48.049Z,97717.16
2022-12-09T01:38:17.281Z,97719.94
2022-12-09T01:40:47.735Z,97715.03
2022-12-09T01:43:19.127Z,97713.50
2022-12-09T01:45:47.871Z,97712.91
2022-12-09T01:48:19.510Z,97704.19
2022-12-09T01:50:53.722Z,97705.44
2022-12-09T01:53:26.191Z,97707.75
2022-12-09T01:55:59.382Z,97695.63
2022-12-09T01:58:29.786Z,97701.34
2022-12-09T02:00:57.892Z,97700.47
2022-12-09T02:03:25.947Z,97692.28
2022-12-09T02:05:55.243Z,97683.16
2022-12-09T02:08:23.535Z,97685.56
2022-12-09T02:11:06.301Z,97681.19
2022-12-09T02:13:48.472Z,97680.56
2022-12-09T02:16:21.007Z,97673.28
2022-12-09T02:18:54.556Z,97667.06
2022-12-09T02:21:29.755Z,97652.91
2022-12-09T02:24:04.756Z,97653.56
2022-12-09T02:26:42.798Z,97647.59
2022-12-09T02:29:37.360Z,97657.97
2022-12-09T02:32:43.928Z,97660.59
2022-12-09T02:35:24.491Z,97658.56
2022-12-09T02:37:59.553Z,97655.22
2022-12-09T02:40:34.881Z,97664.66
2022-12-09T02:43:07.212Z,97665.88
2022-12-09T02:45:38.297Z,97661.84
2022-12-09T02:48:07.992Z,97651.22
2022-12-09T02:50:39.522Z,97650.09
2022-12-09T02:53:11.905Z,97650.66
2022-12-09T02:55:44.020Z,97646.19
2022-12-09T02:58:12.450Z,97649.66
2022-12-09T03:00:41.834Z,97640.50
2022-12-09T03:03:16.639Z,97637.88
2022-12-09T03:05:52.065Z,97629.66
2022-12-09T03:08:29.834Z,97619.94
2022-12-09T03:11:01.222Z,97619.03
2022-12-09T03:13:43.327Z,97618.31
2022-12-09T03:16:18.430Z,97621.03
2022-12-09T03:18:50.006Z,97615.22
2022-12-09T03:21:23.654Z,97611.00
2022-12-09T03:23:54.245Z,97609.00
2022-12-09T03:26:23.485Z,97603.03
2022-12-09T03:28:54.607Z,97608.22
2022-12-09T03:31:28.155Z,97606.53
2022-12-09T03:34:03.984Z,97604.72
2022-12-09T03:36:37.268Z,97605.75
2022-12-09T03:39:09.734Z,97609.47
2022-12-09T03:41:42.906Z,97601.78
2022-12-09T03:44:17.924Z,97611.69
2022-12-09T03:46:47.002Z,97608.16
2022-12-09T03:49:15.955Z,97603.16
2022-12-09T03:51:49.111Z,97598.69
2022-12-09T03:54:23.175Z,97589.78
2022-12-09T03:56:54.945Z,97596.94
2022-12-09T03:59:24.965Z,97601.50
2022-12-09T04:01:53.772Z,97600.81
2022-12-09T04:04:22.673Z,97592.78
2022-12-09T04:06:54.378Z,97594.09
2022-12-09T04:09:23.125Z,97596.16
2022-12-09T04:11:51.103Z,97601.06
2022-12-09T04:14:19.343Z,97597.38
2022-12-09T04:16:47.488Z,97596.00
2022-12-09T04:19:15.640Z,97599.72
2022-12-09T04:21:44.046Z,97599.00
2022-12-09T04:24:13.615Z,97600.88
2022-12-09T04:26:41.399Z,97592.31
2022-12-09T04:29:10.701Z,97586.75
2022-12-09T04:31:38.871Z,97573.34
2022-12-09T04:34:09.609Z,97567.69
2022-12-09T04:36:39.053Z,97567.56
2022-12-09T04:39:07.538Z,97561.56
2022-12-09T04:41:37.540Z,97556.31
2022-12-09T04:44:05.891Z,97545.63
2022-12-09T04:46:34.162Z,97542.41
2022-12-09T04:49:02.218Z,97541.16
2022-12-09T04:51:35.770Z,97539.19
2022-12-09T04:54:07.693Z,97536.53
2022-12-09T04:56:36.901Z,97535.13
2022-12-09T04:59:06.270Z,97525.03
2022-12-09T05:01:37.151Z,97527.50
2022-12-09T05:04:05.640Z,97522.06
2022-12-09T05:06:33.810Z,97516.13
2022-12-09T05:09:04.673Z,97518.59
2022-12-09T05:11:33.851Z,97521.81
2022-12-09T05:14:03.683Z,97519.22
2022-12-09T05:16:31.824Z,97520.75
2022-12-09T05:19:01.439Z,97511.03
2022-12-09T05:21:30.052Z,97512.84
2022-12-09T05:23:59.573Z,97506.00
2022-12-09T05:26:27.753Z,97516.75
2022-12-09T05:28:56.065Z,97507.59
2022-12-09T05:31:25.502Z,97507.25
2022-12-09T05:33:54.133Z,97515.75
2022-12-09T05:36:25.301Z,97511.81
2022-12-09T05:38:54.048Z,97507.94
2022-12-09T05:41:23.086Z,97506.78
2022-12-09T05:43:54.144Z,97502.66
2022-12-09T05:46:22.908Z,97497.09
2022-12-09T05:48:52.634Z,97491.84
2022-12-09T05:51:25.431Z,97488.22
2022-12-09T05:53:54.095Z,97487.88
2022-12-09T05:56:24.350Z,97490.38
2022-12-09T05:58:54.730Z,97485.81
2022-12-09T06:01:23.762Z,97477.31
2022-12-09T06:03:55.354Z,97482.34
2022-12-09T06:06:26.725Z,97482.84
2022-12-09T06:08:57.374Z,97481.81
2022-12-09T06:11:26.892Z,97482.03
2022-12-09T06:14:00.338Z,97481.50
2022-12-09T06:16:30.781Z,97474.16
2022-12-09T06:19:00.791Z,97473.09
2022-12-09T06:21:29.183Z,97461.78
2022-12-09T06:23:57.446Z,97462.84
2022-12-09T06:26:27.802Z,97468.97
2022-12-09T06:28:57.715Z,97460.31
2022-12-09T06:31:26.037Z,97474.75
2022-12-09T06:33:56.526Z,97460.03
2022-12-09T06:36:28.055Z,97459.88
2022-12-09T06:39:04.529Z,97466.19
2022-12-09T06:41:33.965Z,97458.63
2022-12-09T06:44:02.016Z,97464.09
2022-12-09T06:46:30.500Z,97468.91
2022-12-09T06:48:58.575Z,97467.25
2022-12-09T06:51:28.175Z,97474.19
2022-12-09T06:53:56.678Z,97471.47
2022-12-09T06:56:27.674Z,97462.50
2022-12-09T06:58:56.082Z,97471.81
2022-12-09T07:01:26.237Z,97473.28
2022-12-09T07:03:58.180Z,97474.97
2022-12-09T07:06:29.852Z,97472.81
2022-12-09T07:09:01.004Z,97460.31
2022-12-09T07:11:29.667Z,97462.56
2022-12-09T07:13:58.309Z,97464.66
2022-12-09T07:16:26.836Z,97469.34
2022-12-09T07:18:55.641Z,97470.41
2022-12-09T07:21:25.716Z,97471.94
2022-12-09T07:23:55.420Z,97467.91
2022-12-09T07:26:25.671Z,97463.63
2022-12-09T07:28:53.756Z,97461.31
2022-12-09T07:31:23.462Z,97461.78
2022-12-09T07:33:52.867Z,97460.31
2022-12-09T07:36:22.493Z,97455.88
2022-12-09T07:38:51.069Z,97448.91
2022-12-09T07:41:20.927Z,97446.63
2022-12-09T07:43:51.649Z,97439.56
2022-12-09T07:46:21.746Z,97447.72
2022-12-09T07:48:51.047Z,97447.13
2022-12-09T07:51:19.336Z,97451.94
2022-12-09T07:53:48.737Z,97451.16
2022-12-09T07:56:18.565Z,97457.50
2022-12-09T07:58:49.057Z,97454.09
2022-12-09T08:01:19.017Z,97455.50
2022-12-09T08:03:48.534Z,97453.72
2022-12-09T08:06:19.278Z,97456.44
2022-12-09T08:08:47.650Z,97454.63
2022-12-09T08:11:18.104Z,97451.00
2022-12-09T08:13:48.239Z,97444.81
2022-12-09T08:16:19.751Z,97440.06
2022-12-09T08:18:48.106Z,97447.66
2022-12-09T08:21:21.246Z,97446.94
2022-12-09T08:23:50.081Z,97437.03
2022-12-09T08:26:21.405Z,97437.66
2022-12-09T08:28:51.646Z,97438.00
2022-12-09T08:31:24.758Z,97439.31
2022-12-09T08:33:55.130Z,97436.91
2022-12-09T08:36:26.424Z,97429.53
2022-12-09T08:38:55.275Z,97427.19
2022-12-09T08:41:35.431Z,97425.34
2022-12-09T08:44:07.369Z,97416.13
2022-12-09T08:46:37.344Z,97416.94
2022-12-09T08:49:06.336Z,97410.19
2022-12-09T08:51:35.012Z,97415.56
2022-12-09T08:54:06.944Z,97417.69
2022-12-09T08:56:35.253Z,97419.22
2022-12-09T08:59:05.159Z,97420.63
2022-12-09T09:01:35.910Z,97409.78
2022-12-09T09:04:07.555Z,97410.47
2022-12-09T09:06:36.315Z,97404.16
2022-12-09T09:09:05.737Z,97403.13
2022-12-09T09:11:34.404Z,97411.16
2022-12-09T09:14:06.675Z,97403.19
2022-12-09T09:16:39.787Z,97407.47
2022-12-09T09:19:08.136Z,97406.69
2022-12-09T09:21:36.989Z,97401.28
2022-12-09T09:24:10.443Z,97397.75
2022-12-09T09:26:41.569Z,97398.47
2022-12-09T09:29:12.661Z,97404.91
2022-12-09T09:31:40.979Z,97407.25
2022-12-09T09:34:09.246Z,97413.50
2022-12-09T09:36:37.715Z,97406.06
2022-12-09T09:39:06.125Z,97405.34
2022-12-09T09:41:45.462Z,97399.41
2022-12-09T09:44:23.267Z,97391.00
2022-12-09T09:46:52.785Z,97397.19
2022-12-09T09:49:30.976Z,97388.75
2022-12-09T09:51:59.842Z,97389.88
2022-12-09T09:54:28.068Z,97381.25
2022-12-09T09:57:02.106Z,97383.13
2022-12-09T09:59:42.011Z,97381.03
2022-12-09T10:02:19.628Z,97371.72
2022-12-09T10:05:04.688Z,97368.50
2022-12-09T10:07:40.131Z,97370.56
2022-12-09T10:10:22.981Z,97376.31
2022-12-09T10:13:09.466Z,97364.59
2022-12-09T10:15:50.556Z,97356.94
2022-12-09T10:18:28.163Z,97364.22
2022-12-09T10:20:57.274Z,97356.94
2022-12-09T10:23:27.103Z,97350.97
2022-12-09T10:25:59.567Z,97351.72
2022-12-09T10:28:31.989Z,97358.97
2022-12-09T10:31:01.770Z,97354.06
2022-12-09T10:33:31.652Z,97356.22
2022-12-09T10:36:00.795Z,97358.28
2022-12-09T10:38:31.100Z,97364.94
2022-12-09T10:41:03.733Z,97362.59
2022-12-09T10:43:36.301Z,97353.97
2022-12-09T10:46:18.064Z,97348.75
2022-12-09T10:48:54.073Z,97336.63
2022-12-09T10:51:25.827Z,97329.03
2022-12-09T10:53:57.659Z,97328.50
2022-12-09T10:56:29.167Z,97324.22
2022-12-09T10:59:11.433Z,97332.75
2022-12-09T11:01:51.913Z,97325.31
2022-12-09T11:04:26.420Z,97322.53
2022-12-09T11:06:59.789Z,97334.88
2022-12-09T11:09:30.977Z,97335.91
2022-12-09T11:12:00.419Z,97327.72
2022-12-09T11:14:33.459Z,97316.75
2022-12-09T11:17:16.988Z,97316.75
2022-12-09T11:19:49.102Z,97320.19
2022-12-09T11:22:39.129Z,97329.84
2022-12-09T11:25:20.208Z,97322.53
2022-12-09T11:27:52.281Z,97314.34
2022-12-09T11:30:22.468Z,97314.50
2022-12-09T11:32:58.760Z,97318.25
2022-12-09T11:35:32.277Z,97307.44
2022-12-09T11:38:14.021Z,97299.84
2022-12-09T11:40:44.659Z,97298.25
2022-12-09T11:43:12.886Z,97281.41
2022-12-09T11:45:41.747Z,97291.94
2022-12-09T11:48:34.967Z,97294.44
2022-12-09T11:51:07.050Z,97277.69
2022-12-09T11:53:40.621Z,97280.22
2022-12-09T11:56:18.943Z,97287.16
2022-12-09T11:58:51.420Z,97283.78
2022-12-09T12:01:26.795Z,97290.38
2022-12-09T12:03:57.809Z,97287.72
2022-12-09T12:06:30.008Z,97282.41
2022-12-09T12:09:03.851Z,97280.06
2022-12-09T12:11:39.625Z,97283.28
2022-12-09T12:14:16.856Z,97290.00
2022-12-09T12:16:53.736Z,97274.28
2022-12-09T12:19:30.104Z,97281.91
2022-12-09T12:22:27.153Z,97264.97
2022-12-09T12:25:24.818Z,97269.97
2022-12-09T12:28:19.094Z,97272.47
2022-12-09T12:30:55.421Z,97263.69
2022-12-09T12:36:40.412Z,97261.63
2022-12-09T12:39:22.085Z,97260.38
2022-12-09T12:41:56.972Z,97253.94
2022-12-09T12:44:54.756Z,97238.31
2022-12-09T12:47:26.512Z,97253.47
2022-12-09T12:50:11.204Z,97263.88
2022-12-09T12:52:56.175Z,97265.56
2022-12-09T12:55:42.367Z,97273.16
2022-12-09T12:58:18.115Z,97256.75
2022-12-09T13:01:01.200Z,97257.38
2022-12-09T13:03:37.302Z,97266.78
2022-12-09T13:06:06.017Z,97266.16
2022-12-09T13:08:42.219Z,97271.19
2022-12-09T13:11:16.056Z,97275.50
2022-12-09T13:13:47.712Z,97278.19
2022-12-09T13:16:20.259Z,97279.13
2022-12-09T13:18:50.240Z,97281.25
2022-12-09T13:21:18.932Z,97281.63
2022-12-09T13:24:03.264Z,97282.25
2022-12-09T13:26:42.560Z,97282.38
2022-12-09T13:29:23.090Z,97285.66
2022-12-09T13:32:00.166Z,97279.97
2022-12-09T13:34:37.578Z,97272.97
2022-12-09T13:37:06.121Z,97277.75
2022-12-09T13:39:59.687Z,97290.19
2022-12-09T13:42:52.618Z,97287.31
2022-12-09T13:45:27.853Z,97280.88
2022-12-09T13:47:56.729Z,97275.13
2022-12-09T13:50:27.384Z,97283.44
2022-12-09T13:52:57.867Z,97279.63
2022-12-09T13:55:37.537Z,97277.75
2022-12-09T13:58:27.255Z,97290.56
2022-12-09T14:01:17.149Z,97280.16
2022-12-09T14:03:55.679Z,97279.69
2022-12-09T14:06:26.585Z,97284.28
2022-12-09T14:08:57.948Z,97286.09
2022-12-09T14:11:52.338Z,97294.56
2022-12-09T14:14:56.514Z,97294.78
2022-12-09T14:17:59.070Z,97292.47
2022-12-09T14:20:30.869Z,97287.16
2022-12-09T14:23:19.277Z,97278.63
2022-12-09T14:26:07.095Z,97283.75
2022-12-09T14:28:52.131Z,97290.91
2022-12-09T14:31:44.856Z,97292.44
2022-12-09T14:34:27.805Z,97292.34
2022-12-09T14:37:05.642Z,97298.59
2022-12-09T14:39:39.357Z,97294.31
2022-12-09T14:42:14.228Z,97303.75
2022-12-09T14:44:52.167Z,97301.69
2022-12-09T14:47:24.574Z,97312.53
2022-12-09T14:49:54.915Z,97313.06
2022-12-09T14:52:29.872Z,97310.34
2022-12-09T14:54:59.688Z,97318.63
2022-12-09T14:57:33.984Z,97326.72
2022-12-09T15:00:05.685Z,97325.97
2022-12-09T15:02:37.137Z,97326.31
2022-12-09T15:05:17.775Z,97329.59
2022-12-09T15:07:46.450Z,97331.63
2022-12-09T15:10:21.475Z,97336.81
2022-12-09T15:12:52.320Z,97334.88
2022-12-09T15:15:24.914Z,97334.69
2022-12-09T15:17:56.417Z,97324.75
2022-12-09T15:20:28.584Z,97321.41
2022-12-09T15:23:01.401Z,97326.06
2022-12-09T15:25:29.931Z,97326.44
2022-12-09T15:28:00.129Z,97332.94
2022-12-09T15:30:35.822Z,97338.09
2022-12-09T15:33:04.853Z,97344.63
2022-12-09T15:35:34.157Z,97342.97
2022-12-09T15:38:05.930Z,97343.34
2022-12-09T15:40:36.812Z,97337.06
2022-12-09T15:43:11.643Z,97347.44
2022-12-09T15:45:44.731Z,97341.19
2022-12-09T15:48:18.720Z,97351.25
2022-12-09T15:50:50.837Z,97352.06
2022-12-09T15:53:24.171Z,97346.28
2022-12-09T15:55:57.887Z,97351.25
2022-12-09T15:58:30.590Z,97351.78
2022-12-09T16:01:00.233Z,97359.38
2022-12-09T16:03:30.537Z,97358.66
2022-12-09T16:06:02.098Z,97363.38
2022-12-09T16:08:34.291Z,97365.72
2022-12-09T16:11:02.771Z,97373.38
2022-12-09T16:13:30.769Z,97361.97
2022-12-09T16:16:01.966Z,97359.53
2022-12-09T16:18:34.576Z,97357.31
2022-12-09T16:21:20.973Z,97354.81
2022-12-09T16:23:52.968Z,97357.69
2022-12-09T16:26:28.272Z,97360.00
2022-12-09T16:28:59.631Z,97360.84
2022-12-09T16:31:29.550Z,97354.03
2022-12-09T16:33:58.389Z,97349.25
2022-12-09T16:36:29.460Z,97356.72
2022-12-09T16:39:42.936Z,97353.41
2022-12-09T16:42:22.811Z,97360.31
2022-12-09T16:44:51.050Z,97358.22
2022-12-09T16:47:24.308Z,97355.22
2022-12-09T16:49:52.777Z,97356.59
2022-12-09T16:52:24.300Z,97363.66
2022-12-09T16:54:52.732Z,97375.34
2022-12-09T16:57:21.327Z,97366.28
2022-12-09T16:59:50.907Z,97371.69
2022-12-09T17:02:32.996Z,97374.75
2022-12-09T17:05:03.290Z,97369.66
2022-12-09T17:07:31.111Z,97369.06
2022-12-09T17:09:59.018Z,97372.22
2022-12-09T17:12:27.033Z,97376.44
2022-12-09T17:14:54.982Z,97376.97
2022-12-09T17:17:24.219Z,97377.28
2022-12-09T17:19:52.227Z,97368.66
2022-12-09T17:22:20.140Z,97378.63
2022-12-09T17:24:48.107Z,97377.81
2022-12-09T17:27:18.162Z,97378.59
2022-12-09T17:29:46.542Z,97382.75
2022-12-09T17:32:16.490Z,97383.97
2022-12-09T17:34:45.770Z,97377.72
2022-12-09T17:37:13.678Z,97382.63
2022-12-09T17:39:41.510Z,97371.72
2022-12-09T17:42:09.337Z,97377.28
2022-12-09T17:44:37.228Z,97376.59
2022-12-09T17:47:09.281Z,97375.66
2022-12-09T17:49:38.089Z,97377.66
2022-12-09T17:52:07.345Z,97375.13
2022-12-09T17:54:35.139Z,97380.63
2022-12-09T17:57:02.968Z,97379.31
2022-12-09T17:59:30.771Z,97381.28
2022-12-09T18:01:59.428Z,97387.97
2022-12-09T18:04:27.213Z,97385.00
2022-12-09T18:06:54.968Z,97385.53
2022-12-09T18:09:24.351Z,97387.78
2022-12-09T18:11:52.476Z,97385.16
2022-12-09T18:14:22.728Z,97389.06
2022-12-09T18:16:50.871Z,97387.41
2022-12-09T18:19:20.712Z,97399.81
2022-12-09T18:21:49.327Z,97401.91
2022-12-09T18:24:17.147Z,97396.88
2022-12-09T18:26:46.343Z,97403.63
2022-12-09T18:29:14.728Z,97411.22
2022-12-09T18:31:45.476Z,97409.34
2022-12-09T18:34:13.288Z,97418.88
2022-12-09T18:36:43.473Z,97418.09
2022-12-09T18:39:11.258Z,97419.28
2022-12-09T18:41:39.038Z,97428.03
2022-12-09T18:44:08.820Z,97427.84
2022-12-09T18:46:38.461Z,97424.91
2022-12-09T18:49:08.646Z,97423.47
2022-12-09T18:51:37.242Z,97426.91
2022-12-09T18:54:06.060Z,97420.34
2022-12-09T18:56:34.746Z,97422.22
2022-12-09T18:59:07.413Z,97418.81
2022-12-09T19:01:40.326Z,97422.28
2022-12-09T19:04:13.489Z,97418.97
2022-12-09T19:06:42.677Z,97424.84
2022-12-09T19:09:12.841Z,97425.75
2022-12-09T19:11:42.135Z,97422.16
2022-12-09T19:14:10.624Z,97420.94
2022-12-09T19:16:40.214Z,97418.84
2022-12-09T19:19:10.374Z,97416.34
2022-12-09T19:21:42.408Z,97420.72
2022-12-09T19:24:15.003Z,97417.00
2022-12-09T19:26:45.481Z,97421.38
2022-12-09T19:29:14.567Z,97419.50
2022-12-09T19:31:45.327Z,97421.97
2022-12-09T19:34:17.644Z,97426.41
2022-12-09T19:36:46.330Z,97431.63
2022-12-09T19:39:15.254Z,97426.28
2022-12-09T19:41:44.483Z,97435.16
2022-12-09T19:44:21.624Z,97433.72
2022-12-09T19:47:03.408Z,97433.72
2022-12-09T19:49:31.220Z,97431.50
2022-12-09T19:52:00.000Z,97438.22
2022-12-09T19:54:29.731Z,97445.13
2022-12-09T19:56:59.997Z,97442.53
2022-12-09T19:59:28.333Z,97447.25
2022-12-09T20:01:56.465Z,97458.16
2022-12-09T20:07:18.699Z,97447.09
2022-12-09T20:09:46.782Z,97457.75
2022-12-09T20:12:17.057Z,97455.22
2022-12-09T20:14:44.891Z,97454.88
2022-12-09T20:17:12.889Z,97460.47
2022-12-09T20:19:42.056Z,97452.09
2022-12-09T20:22:09.899Z,97453.00
2022-12-09T20:24:37.738Z,97456.38
2022-12-09T20:27:05.626Z,97457.84
2022-12-09T20:29:37.572Z,97466.22
2022-12-09T20:32:06.735Z,97464.69
2022-12-09T20:34:34.889Z,97465.06
2022-12-09T20:37:04.282Z,97457.75
2022-12-09T20:39:32.067Z,97466.31
2022-12-09T20:42:00.279Z,97460.75
2022-12-09T20:44:32.301Z,97464.22
2022-12-09T20:47:00.281Z,97468.44
2022-12-09T20:49:29.788Z,97465.81
2022-12-09T20:51:57.556Z,97464.09
2022-12-09T20:54:26.806Z,97476.19
2022-12-09T20:56:54.763Z,97473.97
2022-12-09T20:59:22.733Z,97473.34
2022-12-09T21:01:50.617Z,97475.03
2022-12-09T21:04:21.586Z,97467.75
2022-12-09T21:06:49.702Z,97464.53
2022-12-09T21:09:21.642Z,97473.13
2022-12-09T21:11:51.328Z,97465.16
2022-12-09T21:14:20.129Z,97469.59
2022-12-09T21:16:50.397Z,97467.03
2022-12-09T21:19:25.215Z,97471.50
2022-12-09T21:21:53.893Z,97469.84
2022-12-09T21:24:24.629Z,97455.97
2022-12-09T21:26:55.352Z,97462.53
2022-12-09T21:29:29.844Z,97460.88
2022-12-09T21:32:00.087Z,97463.50
2022-12-09T21:34:27.934Z,97470.03
2022-12-09T21:36:55.682Z,97468.34
2022-12-09T21:39:23.471Z,97464.03
2022-12-09T21:41:51.301Z,97472.47
2022-12-09T21:44:22.191Z,97473.28
2022-12-09T21:46:49.960Z,97473.66
2022-12-09T21:49:17.743Z,97466.84
2022-12-09T21:51:45.923Z,97475.69
2022-12-09T21:54:13.673Z,97480.16
2022-12-09T21:56:41.773Z,97475.63
2022-12-09T21:59:11.855Z,97487.34
2022-12-09T22:01:42.892Z,97486.97
2022-12-09T22:04:12.961Z,97493.69
2022-12-09T22:06:46.399Z,97498.50
2022-12-09T22:09:14.295Z,97488.28
2022-12-09T22:11:42.775Z,97496.38
2022-12-09T22:14:11.426Z,97501.22
2022-12-09T22:16:43.918Z,97510.19
2022-12-09T22:19:17.619Z,97510.28
2022-12-09T22:21:45.693Z,97500.75
2022-12-09T22:24:15.676Z,97508.16
2022-12-09T22:26:45.186Z,97508.66
2022-12-09T22:29:14.120Z,97507.66
2022-12-09T22:31:44.483Z,97509.91
2022-12-09T22:34:14.892Z,97508.50
2022-12-09T22:36:43.183Z,97507.00
2022-12-09T22:39:13.934Z,97508.59
2022-12-09T22:41:41.707Z,97503.34
2022-12-09T22:44:11.407Z,97512.50
2022-12-09T22:46:39.461Z,97516.03
2022-12-09T22:49:09.774Z,97513.63
2022-12-09T22:51:37.916Z,97510.28
2022-12-09T22:54:09.259Z,97514.94
2022-12-09T22:56:38.057Z,97508.75
2022-12-09T22:59:06.695Z,97512.75
2022-12-09T23:01:37.525Z,97513.41
2022-12-09T23:04:08.944Z,97521.16
2022-12-09T23:06:38.401Z,97520.84
2022-12-09T23:09:07.760Z,97521.22
2022-12-09T23:11:35.989Z,97515.72
2022-12-09T23:14:04.134Z,97516.84
2022-12-09T23:16:32.095Z,97515.44
2022-12-09T23:19:00.407Z,97507.16
2022-12-09T23:21:32.166Z,97516.75
2022-12-09T23:24:02.241Z,97511.53
2022-12-09T23:26:32.615Z,97513.56
2022-12-09T23:29:01.981Z,97513.69
2022-12-09T23:31:31.976Z,97509.75
2022-12-09T23:34:00.755Z,97502.72
2022-12-09T23:36:32.393Z,97515.66
2022-12-09T23:39:01.723Z,97508.56
2022-12-09T23:41:30.307Z,97514.19
2022-12-09T23:43:58.495Z,97511.19
2022-12-09T23:46:29.082Z,97513.63
2022-12-09T23:48:58.026Z,97517.00
2022-12-09T23:51:27.783Z,97513.81
2022-12-09T23:53:58.851Z,97511.00
2022-12-09T23:56:30.193Z,97513.81
2022-12-09T23:59:00.350Z,97511.13
